Time;durP1;ratioP1;P1;durP2;ratioP2;P2;SDS_P1;SDS_P2;PMS_P1;PMS_P2;Temp;Humidity;BMP_temperature;BMP_pressure;BME280_temperature;BME280_humidity;BME280_pressure;Samples;Min_cycle;Max_cycle;Signal;HPM_P1;HPM_P2
2023/12/07 00:02:15;;;;;;;29.95;21.67;;;1.90;99.90;;;;;;5079007;28;20044;-73
2023/12/07 00:04:40;;;;;;;23.08;19.10;;;1.90;99.90;;;;;;5082545;28;20164;-74
2023/12/07 00:07:06;;;;;;;22.20;19.15;;;2.00;99.90;;;;;;5068925;28;20204;-74
2023/12/07 00:09:32;;;;;;;21.60;18.03;;;2.00;99.90;;;;;;5071529;28;20313;-72
2023/12/07 00:11:58;;;;;;;21.65;18.17;;;2.00;99.90;;;;;;5095375;28;20040;-72
2023/12/07 00:14:23;;;;;;;25.50;19.38;;;1.90;99.90;;;;;;5077771;28;20028;-72
2023/12/07 00:16:49;;;;;;;25.55;20.05;;;2.00;99.90;;;;;;5081166;28;20181;-73
2023/12/07 00:19:15;;;;;;;24.10;18.52;;;2.00;99.90;;;;;;5085010;28;20048;-72
2023/12/07 00:21:40;;;;;;;25.38;19.05;;;2.00;99.90;;;;;;5098552;28;20054;-72
2023/12/07 00:24:06;;;;;;;35.05;21.02;;;2.00;99.90;;;;;;5079596;28;20052;-73
2023/12/07 00:26:32;;;;;;;22.42;18.15;;;2.00;99.90;;;;;;5079170;28;20052;-73
2023/12/07 00:28:58;;;;;;;23.98;20.02;;;2.00;99.90;;;;;;5073385;28;20048;-72
2023/12/07 00:31:23;;;;;;;25.25;20.67;;;2.00;99.90;;;;;;5088288;28;20503;-72
2023/12/07 00:33:49;;;;;;;25.63;19.35;;;2.10;99.90;;;;;;5085738;28;20044;-72
2023/12/07 00:36:15;;;;;;;22.03;18.13;;;2.00;99.90;;;;;;5078176;28;20043;-72
2023/12/07 00:38:41;;;;;;;25.60;19.40;;;2.10;99.90;;;;;;5067922;28;20414;-73
2023/12/07 00:41:09;;;;;;;21.60;18.60;;;2.10;99.90;;;;;;5082291;28;20529;-74
2023/12/07 00:43:35;;;;;;;28.80;21.83;;;2.10;99.90;;;;;;5083086;28;20052;-73
2023/12/07 00:46:02;;;;;;;19.88;17.50;;;2.10;99.90;;;;;;5066370;28;20048;-73
2023/12/07 00:48:28;;;;;;;20.98;18.05;;;2.10;99.90;;;;;;5086520;28;20137;-73
2023/12/07 00:50:53;;;;;;;21.33;17.85;;;2.10;99.90;;;;;;5086523;28;20035;-73
2023/12/07 00:53:19;;;;;;;21.95;19.50;;;2.20;99.90;;;;;;5079731;28;20075;-73
2023/12/07 00:55:45;;;;;;;23.65;19.85;;;2.10;99.90;;;;;;5083088;28;20051;-73
2023/12/07 00:58:10;;;;;;;27.00;21.15;;;2.20;99.90;;;;;;5067174;28;20040;-71
2023/12/07 01:00:37;;;;;;;29.88;22.00;;;2.20;99.90;;;;;;5082605;28;20048;-72
2023/12/07 01:03:03;;;;;;;37.28;23.00;;;2.10;99.90;;;;;;5063945;28;20127;-72
2023/12/07 01:05:28;;;;;;;25.88;20.55;;;2.10;99.90;;;;;;5077210;28;20174;-74
2023/12/07 01:07:54;;;;;;;27.40;20.08;;;2.10;99.90;;;;;;5080502;28;20430;-72
2023/12/07 01:10:20;;;;;;;25.05;18.85;;;2.10;99.90;;;;;;5073252;28;20047;-72
2023/12/07 01:12:45;;;;;;;29.17;21.08;;;2.10;99.90;;;;;;5080238;28;20135;-72
2023/12/07 01:15:11;;;;;;;25.65;21.58;;;2.10;99.90;;;;;;5092309;28;20677;-73
2023/12/07 01:17:37;;;;;;;24.92;21.23;;;2.20;99.90;;;;;;5081193;28;20094;-72
2023/12/07 01:20:07;;;;;;;22.50;19.08;;;2.20;99.90;;;;;;5071142;28;20046;-73
2023/12/07 01:22:32;;;;;;;27.08;21.83;;;2.20;99.90;;;;;;5081282;28;20044;-72
2023/12/07 01:24:58;;;;;;;25.65;20.88;;;2.20;99.90;;;;;;5064184;28;20120;-72
2023/12/07 01:27:24;;;;;;;22.95;20.15;;;2.20;99.90;;;;;;5082929;28;20043;-73
2023/12/07 01:29:49;;;;;;;25.13;19.83;;;2.20;99.90;;;;;;5063193;28;20079;-72
2023/12/07 01:32:16;;;;;;;26.65;21.13;;;2.20;99.90;;;;;;5086775;28;20067;-73
2023/12/07 01:34:41;;;;;;;25.92;20.90;;;2.20;99.90;;;;;;5067069;28;20044;-73
2023/12/07 01:37:07;;;;;;;27.30;21.38;;;2.20;99.90;;;;;;5062641;28;20663;-74
2023/12/07 01:39:33;;;;;;;29.17;22.98;;;2.10;99.90;;;;;;5093112;27;20052;-71
2023/12/07 01:41:59;;;;;;;23.27;20.77;;;2.20;99.90;;;;;;5064006;28;20573;-72
2023/12/07 01:44:25;;;;;;;24.40;20.92;;;2.20;99.90;;;;;;5068627;28;20088;-72
2023/12/07 01:46:54;;;;;;;28.58;22.98;;;2.10;99.90;;;;;;5083359;28;20126;-71
2023/12/07 01:49:20;;;;;;;35.03;24.40;;;2.10;99.90;;;;;;5082212;28;20483;-72
2023/12/07 01:51:46;;;;;;;24.95;22.23;;;2.10;99.90;;;;;;5083393;28;20040;-72
2023/12/07 01:54:12;;;;;;;26.42;22.63;;;2.10;99.90;;;;;;5059184;28;20059;-72
2023/12/07 01:56:38;;;;;;;48.30;27.00;;;2.10;99.90;;;;;;5082366;28;20051;-72
2023/12/07 01:59:04;;;;;;;44.28;28.45;;;2.10;99.90;;;;;;5080080;28;20044;-72
2023/12/07 02:01:29;;;;;;;43.92;29.13;;;2.10;99.90;;;;;;5066294;28;20044;-72
2023/12/07 02:03:55;;;;;;;29.25;23.95;;;2.10;99.90;;;;;;5077811;28;20636;-72
2023/12/07 02:06:21;;;;;;;37.97;25.05;;;2.10;99.90;;;;;;5081220;28;20394;-72
2023/12/07 02:08:47;;;;;;;36.30;26.02;;;2.00;99.90;;;;;;5080733;28;20060;-73
2023/12/07 02:11:13;;;;;;;41.30;27.42;;;2.00;99.90;;;;;;5069058;28;20093;-73
2023/12/07 02:13:41;;;;;;;37.87;27.23;;;2.00;99.90;;;;;;5088987;28;20047;-73
2023/12/07 02:16:19;;;;;;;34.78;26.80;;;2.00;99.90;;;;;;5082053;28;20051;-73
2023/12/07 02:18:55;;;;;;;51.78;30.02;;;2.00;99.90;;;;;;5079772;28;20055;-73
2023/12/07 02:21:37;;;;;;;37.13;26.33;;;1.90;99.90;;;;;;5068837;28;20048;-73
2023/12/07 02:24:05;;;;;;;28.83;23.92;;;1.90;99.90;;;;;;5070097;28;20115;-73
2023/12/07 02:26:35;;;;;;;39.22;27.40;;;1.80;99.90;;;;;;5081201;28;20641;-73
2023/12/07 02:29:00;;;;;;;50.45;30.08;;;1.80;99.90;;;;;;5073355;28;20040;-73
2023/12/07 02:31:27;;;;;;;37.58;27.85;;;1.80;99.90;;;;;;5093127;28;20491;-73
2023/12/07 02:33:53;;;;;;;33.10;25.65;;;1.70;99.90;;;;;;5080920;28;20263;-72
2023/12/07 02:36:28;;;;;;;34.60;26.50;;;1.70;99.90;;;;;;5081470;28;20036;-73
2023/12/07 02:38:57;;;;;;;40.72;27.92;;;1.60;99.90;;;;;;5073354;28;20040;-72
2023/12/07 02:41:25;;;;;;;38.15;27.05;;;1.70;99.90;;;;;;5084526;28;20048;-73
2023/12/07 02:43:51;;;;;;;27.25;23.40;;;1.60;99.90;;;;;;5065754;28;20510;-72
2023/12/07 02:46:18;;;;;;;35.72;27.00;;;1.50;99.90;;;;;;5080492;28;20377;-73
2023/12/07 02:48:44;;;;;;;31.70;23.67;;;1.50;99.90;;;;;;5078319;28;20036;-73
2023/12/07 02:51:09;;;;;;;35.13;26.75;;;1.50;99.90;;;;;;5066405;28;20410;-72
2023/12/07 02:53:35;;;;;;;29.02;24.55;;;1.40;99.90;;;;;;5073013;28;20568;-72
2023/12/07 02:56:01;;;;;;;42.20;27.00;;;1.40;99.90;;;;;;5077727;28;20127;-73
2023/12/07 02:58:26;;;;;;;60.03;30.60;;;1.40;99.90;;;;;;5082151;28;20426;-72
2023/12/07 03:00:52;;;;;;;68.25;33.15;;;1.30;99.90;;;;;;5062525;28;20495;-72
2023/12/07 03:03:18;;;;;;;48.05;30.05;;;1.30;99.90;;;;;;5060490;28;20050;-72
2023/12/07 03:05:44;;;;;;;55.28;30.27;;;1.30;99.90;;;;;;5080813;28;20051;-72
2023/12/07 03:08:09;;;;;;;45.05;29.77;;;1.30;99.90;;;;;;5052749;28;20492;-72
2023/12/07 03:10:35;;;;;;;34.70;27.15;;;1.20;99.90;;;;;;5070139;28;20060;-72
2023/12/07 03:13:01;;;;;;;32.72;26.88;;;1.30;99.90;;;;;;5075972;28;20074;-72
2023/12/07 03:15:27;;;;;;;46.88;30.15;;;1.30;99.90;;;;;;5066185;28;20117;-72
2023/12/07 03:17:52;;;;;;;60.88;31.77;;;1.30;99.90;;;;;;5048274;28;20047;-72
2023/12/07 03:20:18;;;;;;;45.97;30.15;;;1.30;99.90;;;;;;5053066;28;20622;-72
2023/12/07 03:22:44;;;;;;;56.30;31.33;;;1.30;99.90;;;;;;5073777;28;20052;-72
2023/12/07 03:25:10;;;;;;;54.67;30.33;;;1.30;99.90;;;;;;5063058;28;20040;-72
2023/12/07 03:27:36;;;;;;;57.15;31.67;;;1.30;99.90;;;;;;5068368;28;20499;-71
2023/12/07 03:30:02;;;;;;;55.75;30.55;;;1.20;99.90;;;;;;5067685;28;20405;-72
2023/12/07 03:32:27;;;;;;;40.80;27.43;;;1.20;99.90;;;;;;5048515;28;20064;-72
2023/12/07 03:34:53;;;;;;;42.88;27.98;;;1.20;99.90;;;;;;5051461;28;20557;-71
2023/12/07 03:37:19;;;;;;;33.72;25.55;;;1.20;99.90;;;;;;5061561;28;20080;-72
2023/12/07 03:39:44;;;;;;;74.07;34.00;;;1.20;99.90;;;;;;5056352;28;20046;-72
2023/12/07 03:42:10;;;;;;;60.40;32.67;;;1.20;99.90;;;;;;5078867;28;20395;-72
2023/12/07 03:44:36;;;;;;;31.77;25.52;;;1.20;99.90;;;;;;5077859;28;20048;-72
2023/12/07 03:47:02;;;;;;;33.55;25.33;;;1.20;99.90;;;;;;5057808;28;20055;-73
2023/12/07 03:49:27;;;;;;;29.75;23.90;;;1.10;99.90;;;;;;5071201;28;20105;-72
2023/12/07 03:51:54;;;;;;;29.73;24.35;;;1.10;99.90;;;;;;5065015;28;20500;-72
2023/12/07 03:54:20;;;;;;;56.75;30.48;;;1.00;99.90;;;;;;5054886;28;20119;-72
2023/12/07 03:56:46;;;;;;;46.57;27.73;;;0.90;99.90;;;;;;5077712;28;20563;-73
2023/12/07 03:59:11;;;;;;;66.75;32.38;;;0.90;99.90;;;;;;5070237;28;20457;-72
2023/12/07 04:01:37;;;;;;;28.60;23.33;;;0.90;99.90;;;;;;5079714;28;20037;-72
2023/12/07 04:04:04;;;;;;;34.60;26.13;;;0.90;99.90;;;;;;5070639;28;20040;-72
2023/12/07 04:06:30;;;;;;;40.67;27.37;;;0.80;99.90;;;;;;5076633;28;20036;-72
2023/12/07 04:08:56;;;;;;;62.37;29.23;;;0.80;99.90;;;;;;5091322;28;20112;-72
2023/12/07 04:11:22;;;;;;;56.35;30.77;;;0.80;99.90;;;;;;5074204;28;20047;-72
2023/12/07 04:13:48;;;;;;;37.20;27.37;;;0.70;99.90;;;;;;5075788;28;20048;-72
2023/12/07 04:16:14;;;;;;;55.53;30.30;;;0.80;99.90;;;;;;5060348;28;20039;-72
2023/12/07 04:18:40;;;;;;;39.63;27.83;;;0.80;99.90;;;;;;5061643;28;20503;-72
2023/12/07 04:21:06;;;;;;;67.20;32.03;;;0.80;99.90;;;;;;5069053;28;20395;-72
2023/12/07 04:23:32;;;;;;;88.28;35.60;;;0.80;99.90;;;;;;5081335;28;20199;-72
2023/12/07 04:25:58;;;;;;;107.30;38.50;;;0.80;99.90;;;;;;5073018;28;20119;-72
2023/12/07 04:28:24;;;;;;;102.80;37.97;;;0.80;99.90;;;;;;5074983;28;20131;-72
2023/12/07 04:30:50;;;;;;;103.57;39.67;;;0.80;99.90;;;;;;5073834;28;20058;-72
2023/12/07 04:33:15;;;;;;;122.88;41.70;;;0.80;99.90;;;;;;5073381;28;20044;-72
2023/12/07 04:35:41;;;;;;;143.03;44.60;;;0.80;99.90;;;;;;5081323;28;20648;-73
2023/12/07 04:38:07;;;;;;;103.20;39.67;;;0.80;99.90;;;;;;5077114;28;20048;-73
2023/12/07 04:40:33;;;;;;;127.97;43.73;;;0.80;99.90;;;;;;5070920;28;20044;-73
2023/12/07 04:42:58;;;;;;;88.47;39.37;;;0.80;99.90;;;;;;5079702;28;20487;-73
2023/12/07 04:45:24;;;;;;;114.07;43.37;;;0.80;99.90;;;;;;5080670;28;20036;-73
2023/12/07 04:47:50;;;;;;;94.67;41.20;;;0.80;99.90;;;;;;5059538;28;20483;-73
2023/12/07 04:50:15;;;;;;;115.03;43.70;;;0.80;99.90;;;;;;5080325;28;20040;-74
2023/12/07 04:52:41;;;;;;;103.47;41.43;;;0.70;99.90;;;;;;5087262;28;20278;-72
2023/12/07 04:55:08;;;;;;;143.17;46.57;;;0.80;99.90;;;;;;5081820;28;20046;-71
2023/12/07 04:57:34;;;;;;;119.30;46.37;;;0.80;99.90;;;;;;5082772;28;20047;-74
2023/12/07 05:00:00;;;;;;;84.20;40.80;;;0.70;99.90;;;;;;5066026;28;20096;-73
2023/12/07 05:02:27;;;;;;;97.30;42.13;;;0.80;99.90;;;;;;5095645;28;20044;-72
2023/12/07 05:04:53;;;;;;;108.27;43.83;;;0.70;99.90;;;;;;5088320;28;20035;-72
2023/12/07 05:07:20;;;;;;;90.47;41.17;;;0.60;99.90;;;;;;5068585;28;20097;-71
2023/12/07 05:09:45;;;;;;;186.30;46.77;;;0.60;99.90;;;;;;5068975;28;20921;-72
2023/12/07 05:12:11;;;;;;;55.17;35.07;;;0.60;99.90;;;;;;5084259;28;20037;-73
2023/12/07 05:14:37;;;;;;;75.37;38.90;;;0.60;99.90;;;;;;5074381;28;20075;-73
2023/12/07 05:17:06;;;;;;;47.93;32.87;;;0.60;99.90;;;;;;5070158;28;20122;-71
2023/12/07 05:19:32;;;;;;;178.03;44.83;;;0.60;99.90;;;;;;5069638;28;20546;-73
2023/12/07 05:21:58;;;;;;;45.40;31.43;;;0.50;99.90;;;;;;5075254;28;20120;-73
2023/12/07 05:24:24;;;;;;;45.00;31.20;;;0.60;99.90;;;;;;5061270;28;20507;-73
2023/12/07 05:26:49;;;;;;;48.07;31.87;;;0.50;99.90;;;;;;5071920;28;20044;-72
2023/12/07 05:29:15;;;;;;;47.63;32.87;;;0.50;99.90;;;;;;5057117;28;20099;-72
2023/12/07 05:31:41;;;;;;;50.67;35.47;;;0.50;99.90;;;;;;5074716;28;20049;-73
2023/12/07 05:34:10;;;;;;;48.00;34.80;;;0.50;99.90;;;;;;5051373;28;20403;-73
2023/12/07 05:36:36;;;;;;;48.15;34.63;;;0.50;99.90;;;;;;5082372;28;20510;-72
2023/12/07 05:39:02;;;;;;;50.80;34.90;;;0.50;99.90;;;;;;5063894;28;20079;-72
2023/12/07 05:41:28;;;;;;;47.70;33.77;;;0.40;99.90;;;;;;5079619;28;20048;-72
2023/12/07 05:43:54;;;;;;;51.30;34.97;;;0.40;99.90;;;;;;5070649;28;20040;-73
2023/12/07 05:46:20;;;;;;;50.10;35.17;;;0.40;99.90;;;;;;5075370;28;20318;-73
2023/12/07 05:48:46;;;;;;;45.53;33.23;;;0.40;99.90;;;;;;5067356;28;20048;-73
2023/12/07 05:51:20;;;;;;;43.03;33.37;;;0.40;99.90;;;;;;5067293;28;20638;-73
2023/12/07 05:53:46;;;;;;;47.50;33.20;;;0.40;99.90;;;;;;5059363;28;20401;-73
2023/12/07 05:56:11;;;;;;;48.77;33.70;;;0.40;99.90;;;;;;5075721;28;20041;-72
2023/12/07 05:58:37;;;;;;;46.50;35.63;;;0.30;99.90;;;;;;5054041;28;20475;-73
2023/12/07 06:01:03;;;;;;;45.80;33.63;;;0.30;99.90;;;;;;5072759;28;20082;-73
2023/12/07 06:03:29;;;;;;;47.37;33.43;;;0.20;99.90;;;;;;5064059;28;20075;-72
2023/12/07 06:05:55;;;;;;;47.07;32.90;;;0.20;99.90;;;;;;5073760;28;20506;-72
2023/12/07 06:08:22;;;;;;;52.20;36.20;;;0.20;99.90;;;;;;5081189;28;20126;-72
2023/12/07 06:10:48;;;;;;;46.97;33.50;;;0.20;99.90;;;;;;5072994;28;20661;-72
2023/12/07 06:13:14;;;;;;;46.00;33.20;;;0.20;99.90;;;;;;5077997;28;20082;-73
2023/12/07 06:15:40;;;;;;;49.90;34.83;;;0.20;99.90;;;;;;5079920;28;20058;-73
2023/12/07 06:18:06;;;;;;;50.00;34.53;;;0.10;99.90;;;;;;5062947;28;20052;-73
2023/12/07 06:20:33;;;;;;;47.00;34.27;;;0.10;99.90;;;;;;5062536;28;20041;-72
2023/12/07 06:22:59;;;;;;;54.43;35.97;;;0.10;99.90;;;;;;5083127;28;20040;-73
2023/12/07 06:25:25;;;;;;;48.17;35.07;;;0.10;99.90;;;;;;5083585;28;20070;-71
2023/12/07 06:27:51;;;;;;;49.83;35.53;;;0.00;99.90;;;;;;5077380;28;20052;-73
2023/12/07 06:30:17;;;;;;;53.33;35.73;;;0.00;99.90;;;;;;5074360;28;20076;-73
2023/12/07 06:32:44;;;;;;;48.77;35.00;;;0.10;99.90;;;;;;5080740;28;20048;-72
2023/12/07 06:35:12;;;;;;;52.93;35.13;;;0.10;99.90;;;;;;5069946;28;20039;-73
2023/12/07 06:37:39;;;;;;;46.60;34.43;;;0.10;99.90;;;;;;5089557;28;20069;-72
2023/12/07 06:40:09;;;;;;;46.57;34.37;;;0.00;99.90;;;;;;5074566;28;20411;-72
2023/12/07 06:42:35;;;;;;;61.03;37.53;;;0.10;99.90;;;;;;5065357;28;20040;-72
2023/12/07 06:45:05;;;;;;;47.10;33.33;;;0.10;99.90;;;;;;5078885;28;20118;-71
2023/12/07 06:47:31;;;;;;;43.53;32.63;;;0.10;99.90;;;;;;5053430;28;20079;-71
2023/12/07 06:49:57;;;;;;;51.80;33.30;;;0.00;99.90;;;;;;5082574;28;20071;-72
2023/12/07 06:52:22;;;;;;;43.00;32.67;;;0.00;99.90;;;;;;5087777;28;20037;-71
2023/12/07 06:54:48;;;;;;;44.37;33.37;;;0.00;99.90;;;;;;5085981;28;20040;-75
2023/12/07 06:57:14;;;;;;;43.50;32.10;;;0.00;99.90;;;;;;5086825;28;20117;-74
2023/12/07 06:59:43;;;;;;;56.67;37.63;;;0.00;99.90;;;;;;5084178;28;20083;-74
2023/12/07 07:02:09;;;;;;;43.33;33.33;;;0.00;99.90;;;;;;5078840;28;20028;-74
2023/12/07 07:04:34;;;;;;;47.07;33.10;;;0.00;99.90;;;;;;5082392;28;20036;-75
2023/12/07 07:07:00;;;;;;;47.60;35.70;;;0.00;99.90;;;;;;5088774;28;20055;-75
2023/12/07 07:09:26;;;;;;;46.93;36.13;;;0.00;99.90;;;;;;5063775;28;20041;-75
2023/12/07 07:11:53;;;;;;;48.53;38.10;;;0.00;99.90;;;;;;5078335;28;20055;-75
2023/12/07 07:14:19;;;;;;;47.83;35.93;;;0.00;99.90;;;;;;5071955;28;20060;-75
2023/12/07 07:16:44;;;;;;;47.80;37.90;;;0.00;99.90;;;;;;5061281;28;20108;-76
2023/12/07 07:19:11;;;;;;;49.20;39.83;;;-0.10;99.90;;;;;;5071038;28;20072;-76
2023/12/07 07:21:36;;;;;;;50.37;41.30;;;0.00;99.90;;;;;;5073687;28;20056;-75
2023/12/07 07:24:02;;;;;;;54.60;41.00;;;0.10;99.90;;;;;;5063589;28;20572;-75
2023/12/07 07:26:28;;;;;;;54.20;40.80;;;0.00;99.90;;;;;;5068954;28;20041;-74
2023/12/07 07:28:57;;;;;;;54.03;40.73;;;-0.10;99.90;;;;;;5065071;28;20127;-74
2023/12/07 07:31:22;;;;;;;57.60;40.53;;;0.10;99.90;;;;;;5060350;28;20068;-74
2023/12/07 07:33:48;;;;;;;54.17;40.70;;;0.00;99.90;;;;;;5048666;28;20537;-73
2023/12/07 07:36:17;;;;;;;50.23;39.47;;;0.00;99.90;;;;;;5068082;28;20049;-73
2023/12/07 07:38:44;;;;;;;56.53;41.03;;;0.00;99.90;;;;;;5057519;28;20079;-75
2023/12/07 07:41:10;;;;;;;51.00;40.03;;;0.00;99.90;;;;;;5057383;28;20136;-75
2023/12/07 07:43:36;;;;;;;55.07;40.40;;;0.00;99.90;;;;;;5077732;28;20040;-73
2023/12/07 07:46:04;;;;;;;50.07;38.93;;;0.00;99.90;;;;;;5065593;28;20047;-73
2023/12/07 07:48:29;;;;;;;52.40;41.10;;;0.00;99.90;;;;;;5069271;28;20037;-72
2023/12/07 07:50:55;;;;;;;50.63;40.97;;;0.00;99.90;;;;;;5072680;28;20055;-74
2023/12/07 07:53:21;;;;;;;54.70;41.87;;;0.10;99.90;;;;;;5051486;28;20513;-74
2023/12/07 07:55:47;;;;;;;56.37;41.87;;;0.00;99.90;;;;;;5085855;28;20143;-74
2023/12/07 07:58:13;;;;;;;53.43;41.23;;;0.00;99.90;;;;;;5071960;28;20131;-75
2023/12/07 08:00:39;;;;;;;53.87;40.53;;;0.00;99.90;;;;;;5071771;28;20052;-74
2023/12/07 08:03:05;;;;;;;48.43;40.00;;;0.00;99.90;;;;;;5065921;28;20044;-73
2023/12/07 08:05:31;;;;;;;55.37;40.87;;;-0.10;99.90;;;;;;5084224;28;20036;-74
2023/12/07 08:08:00;;;;;;;54.60;42.67;;;-0.10;99.90;;;;;;5061831;28;20102;-73
2023/12/07 08:10:25;;;;;;;58.73;42.83;;;0.00;99.90;;;;;;5083709;28;20051;-74
2023/12/07 08:12:54;;;;;;;58.87;43.90;;;-0.10;99.90;;;;;;5068002;28;20052;-74
2023/12/07 08:15:21;;;;;;;63.67;47.17;;;-0.10;99.90;;;;;;5064186;28;20490;-72
2023/12/07 08:17:47;;;;;;;64.63;46.67;;;-0.10;99.90;;;;;;5076772;28;20105;-73
2023/12/07 08:20:14;;;;;;;63.67;46.77;;;-0.10;99.90;;;;;;5068272;28;20052;-73
2023/12/07 08:22:43;;;;;;;61.97;45.47;;;0.00;99.90;;;;;;5056412;28;20113;-73
2023/12/07 08:25:10;;;;;;;60.20;43.50;;;0.00;99.90;;;;;;5063049;28;20040;-73
2023/12/07 08:27:38;;;;;;;63.53;46.20;;;0.00;99.90;;;;;;5079116;28;20064;-74
2023/12/07 08:30:04;;;;;;;70.30;47.07;;;0.10;99.90;;;;;;5071712;28;20044;-73
2023/12/07 08:32:30;;;;;;;65.97;45.93;;;0.10;99.90;;;;;;5065387;28;20037;-74
2023/12/07 08:34:57;;;;;;;82.27;51.00;;;0.20;99.90;;;;;;5055498;28;20121;-73
2023/12/07 08:37:22;;;;;;;68.80;46.83;;;0.20;99.90;;;;;;5067451;28;20048;-73
2023/12/07 08:39:48;;;;;;;60.73;44.30;;;0.20;99.90;;;;;;5076029;28;20063;-74
2023/12/07 08:42:14;;;;;;;77.33;48.43;;;0.20;99.90;;;;;;5077275;28;20044;-75
2023/12/07 08:44:41;;;;;;;66.20;45.80;;;0.20;99.90;;;;;;5063355;28;20051;-74
2023/12/07 08:47:06;;;;;;;70.23;47.63;;;0.20;99.90;;;;;;5071888;28;20174;-75
2023/12/07 08:49:32;;;;;;;71.83;48.50;;;0.20;99.90;;;;;;5057780;28;20496;-74
2023/12/07 08:51:58;;;;;;;84.10;49.90;;;0.30;99.90;;;;;;5068087;28;20040;-74
2023/12/07 08:54:24;;;;;;;71.23;48.40;;;0.30;99.90;;;;;;5070149;28;20036;-74
2023/12/07 08:56:50;;;;;;;75.30;49.17;;;0.30;99.90;;;;;;5080379;28;20051;-75
2023/12/07 08:59:16;;;;;;;65.13;49.00;;;0.30;99.90;;;;;;5087229;28;20165;-75
2023/12/07 09:01:42;;;;;;;88.73;53.37;;;0.40;99.90;;;;;;5077882;28;20185;-75
2023/12/07 09:04:07;;;;;;;72.60;49.13;;;0.40;99.90;;;;;;5081044;28;20044;-76
2023/12/07 09:06:33;;;;;;;68.60;49.23;;;0.40;99.90;;;;;;5085767;28;20126;-74
2023/12/07 09:08:59;;;;;;;76.63;52.37;;;0.40;99.90;;;;;;5067348;28;20674;-74
2023/12/07 09:11:24;;;;;;;77.70;52.20;;;0.40;99.90;;;;;;5075580;28;20044;-74
2023/12/07 09:13:50;;;;;;;78.17;52.37;;;0.50;99.90;;;;;;5080390;28;20056;-74
2023/12/07 09:16:21;;;;;;;125.27;64.20;;;0.40;99.90;;;;;;5075829;28;20040;-75
2023/12/07 09:18:47;;;;;;;101.70;56.57;;;0.50;99.90;;;;;;5055318;28;20075;-74
2023/12/07 09:21:13;;;;;;;77.07;53.47;;;0.60;99.90;;;;;;5063955;28;20094;-74
2023/12/07 09:23:39;;;;;;;74.47;52.83;;;0.60;99.90;;;;;;5069981;28;20088;-74
2023/12/07 09:26:05;;;;;;;79.90;54.27;;;0.60;99.90;;;;;;5079938;28;20040;-74
2023/12/07 09:28:33;;;;;;;72.63;51.97;;;0.60;99.90;;;;;;5078846;28;20044;-75
2023/12/07 09:30:59;;;;;;;74.87;52.90;;;0.60;99.90;;;;;;5090184;28;20051;-74
2023/12/07 09:33:24;;;;;;;72.43;52.37;;;0.60;99.90;;;;;;5090167;28;20055;-74
2023/12/07 09:35:51;;;;;;;83.60;56.73;;;0.70;99.90;;;;;;5075564;28;20054;-74
2023/12/07 09:38:17;;;;;;;76.67;55.70;;;0.80;99.90;;;;;;5069320;28;20528;-74
2023/12/07 09:40:45;;;;;;;88.70;57.53;;;0.80;99.90;;;;;;5066246;28;20465;-74
2023/12/07 09:43:12;;;;;;;74.73;52.97;;;0.80;99.90;;;;;;5080906;28;20622;-74
2023/12/07 09:45:37;;;;;;;85.13;58.13;;;0.80;99.90;;;;;;5066172;28;20052;-74
2023/12/07 09:48:04;;;;;;;112.53;63.67;;;0.80;99.90;;;;;;5079436;28;20426;-75
2023/12/07 09:50:30;;;;;;;91.63;59.03;;;0.80;99.90;;;;;;5083355;28;20128;-75
2023/12/07 09:52:58;;;;;;;106.53;60.77;;;0.80;99.90;;;;;;5082681;28;20114;-75
2023/12/07 09:55:27;;;;;;;133.20;63.67;;;0.80;99.90;;;;;;5068481;28;20036;-76
2023/12/07 09:57:56;;;;;;;128.63;59.53;;;0.90;99.90;;;;;;5080499;28;20135;-75
2023/12/07 10:00:23;;;;;;;207.65;72.20;;;0.80;99.90;;;;;;5082427;28;20048;-75
2023/12/07 10:02:50;;;;;;;253.60;74.93;;;0.80;99.90;;;;;;5084244;28;20060;-75
2023/12/07 10:05:16;;;;;;;260.97;68.00;;;0.80;99.90;;;;;;5069700;28;20113;-75
2023/12/07 10:07:44;;;;;;;324.17;76.93;;;0.80;99.90;;;;;;5084007;28;20317;-75
2023/12/07 10:10:11;;;;;;;272.60;70.40;;;0.80;99.90;;;;;;5074447;28;20482;-75
2023/12/07 10:13:02;;;;;;;351.13;82.30;;;0.70;99.90;;;;;;5076860;28;20044;-75
2023/12/07 10:15:28;;;;;;;201.53;68.07;;;0.60;99.90;;;;;;5060564;28;20127;-75
2023/12/07 10:17:56;;;;;;;145.90;55.43;;;0.60;99.90;;;;;;5068022;28;20052;-75
2023/12/07 10:20:27;;;;;;;186.33;62.70;;;0.70;99.90;;;;;;5058438;28;20119;-74
2023/12/07 10:23:08;;;;;;;183.47;60.00;;;0.60;99.90;;;;;;5075139;28;20052;-75
2023/12/07 10:25:40;;;;;;;;;;;0.60;99.90;;;;;;5067149;28;20044;-74
2023/12/07 10:28:08;;;;;;;233.07;66.60;;;0.50;99.90;;;;;;5078396;28;20031;-74
2023/12/07 10:30:35;;;;;;;291.77;73.17;;;0.50;99.90;;;;;;5055285;28;20032;-74
2023/12/07 10:33:09;;;;;;;201.97;59.80;;;0.50;99.90;;;;;;5071183;28;20049;-74
2023/12/07 10:35:42;;;;;;;202.13;63.60;;;0.50;99.90;;;;;;5069495;28;20043;-75
2023/12/07 10:38:09;;;;;;;240.73;71.20;;;0.50;99.90;;;;;;5072439;28;20040;-75
2023/12/07 10:40:35;;;;;;;174.80;61.87;;;0.60;99.90;;;;;;5075280;28;20534;-75
2023/12/07 10:43:05;;;;;;;204.87;61.97;;;0.50;99.90;;;;;;5079293;28;20398;-75
2023/12/07 10:45:31;;;;;;;242.50;67.43;;;0.50;99.90;;;;;;5082652;28;20036;-75
2023/12/07 10:48:08;;;;;;;166.20;59.43;;;0.50;99.90;;;;;;5065717;28;20206;-74
2023/12/07 10:50:37;;;;;;;161.23;59.13;;;0.50;99.90;;;;;;5080376;28;20079;-75
2023/12/07 10:53:30;;;;;;;162.70;60.10;;;0.50;99.90;;;;;;5056191;28;20040;-75
2023/12/07 10:55:59;;;;;;;136.90;52.50;;;0.50;99.90;;;;;;5054945;28;20688;-76
2023/12/07 10:58:26;;;;;;;164.18;56.08;;;0.50;99.90;;;;;;5075462;28;20127;-76
2023/12/07 11:00:57;;;;;;;167.47;57.43;;;0.50;99.90;;;;;;5055831;28;20507;-75
2023/12/07 11:03:24;;;;;;;164.87;57.73;;;0.50;99.90;;;;;;5074181;28;20046;-75
2023/12/07 11:05:50;;;;;;;114.63;54.43;;;0.60;99.90;;;;;;5058673;28;20040;-75
2023/12/07 11:08:49;;;;;;;169.03;61.33;;;0.50;99.90;;;;;;5075084;28;20048;-75
2023/12/07 11:11:24;;;;;;;120.63;54.97;;;0.60;99.90;;;;;;5073906;28;20051;-75
2023/12/07 11:14:00;;;;;;;166.07;60.77;;;0.60;99.90;;;;;;5061201;28;20048;-75
2023/12/07 11:16:34;;;;;;;143.03;57.50;;;0.60;99.90;;;;;;5072502;28;20072;-76
2023/12/07 11:19:00;;;;;;;123.10;54.03;;;0.60;99.90;;;;;;5063107;28;20056;-76
2023/12/07 11:21:27;;;;;;;269.07;75.70;;;0.70;99.90;;;;;;5064675;28;20499;-77
2023/12/07 11:23:54;;;;;;;218.33;70.53;;;0.70;99.90;;;;;;5068031;28;20044;-76
2023/12/07 11:26:24;;;;;;;228.10;71.70;;;0.70;99.90;;;;;;5059975;28;20380;-77
2023/12/07 11:28:50;;;;;;;128.05;58.60;;;0.70;99.90;;;;;;5069511;28;20080;-77
2023/12/07 11:31:16;;;;;;;143.33;60.13;;;0.70;99.90;;;;;;5053178;28;20084;-77
2023/12/07 11:33:42;;;;;;;258.83;72.77;;;0.70;99.90;;;;;;5052574;28;20045;-77
2023/12/07 11:36:10;;;;;;;205.30;66.43;;;0.80;99.90;;;;;;5067738;28;20040;-76
2023/12/07 11:39:02;;;;;;;209.87;72.53;;;0.70;99.90;;;;;;5066959;28;20036;-77
2023/12/07 11:41:44;;;;;;;222.37;72.33;;;0.70;99.90;;;;;;5065895;28;20040;-77
2023/12/07 11:44:11;;;;;;;179.77;68.23;;;0.70;99.90;;;;;;5081339;28;20499;-77
2023/12/07 11:46:40;;;;;;;189.20;66.10;;;0.70;99.90;;;;;;5057591;28;20560;-76
2023/12/07 11:49:10;;;;;;;221.60;72.03;;;0.80;99.90;;;;;;5067024;28;20179;-77
2023/12/07 11:51:36;;;;;;;256.02;76.63;;;0.80;99.90;;;;;;5078965;28;20043;-75
2023/12/07 11:54:03;;;;;;;264.97;80.13;;;0.70;99.90;;;;;;5068344;28;20051;-75
2023/12/07 11:56:28;;;;;;;166.80;70.07;;;0.80;99.90;;;;;;5074429;28;20040;-76
2023/12/07 11:58:55;;;;;;;267.30;78.10;;;0.80;99.90;;;;;;5085287;28;20502;-75
2023/12/07 12:01:24;;;;;;;194.17;73.13;;;0.80;99.90;;;;;;5064166;28;20032;-75
2023/12/07 12:03:50;;;;;;;208.97;74.33;;;0.70;99.90;;;;;;5070258;28;20044;-76
2023/12/07 12:06:16;;;;;;;156.03;66.73;;;0.80;99.90;;;;;;5081590;28;20090;-75
2023/12/07 12:08:42;;;;;;;222.63;76.53;;;0.80;99.90;;;;;;5065004;28;20055;-75
2023/12/07 12:11:08;;;;;;;276.87;87.77;;;0.80;99.90;;;;;;5077216;28;20074;-75
2023/12/07 12:13:35;;;;;;;254.90;79.77;;;0.80;99.90;;;;;;5068113;28;20040;-76
2023/12/07 12:16:01;;;;;;;256.37;85.47;;;0.80;99.90;;;;;;5086488;28;20047;-76
2023/12/07 12:18:27;;;;;;;193.37;71.03;;;0.80;99.90;;;;;;5081206;28;20131;-75
2023/12/07 12:20:54;;;;;;;160.53;69.93;;;0.70;99.90;;;;;;5053270;28;20071;-76
2023/12/07 12:23:20;;;;;;;182.27;71.23;;;0.80;99.90;;;;;;5068416;28;20062;-76
2023/12/07 12:25:47;;;;;;;226.07;80.13;;;0.80;99.90;;;;;;5081840;28;21246;-76
2023/12/07 12:28:16;;;;;;;186.40;71.97;;;0.80;99.90;;;;;;5059535;28;20482;-76
2023/12/07 12:30:42;;;;;;;194.13;73.53;;;0.80;99.90;;;;;;5076653;28;20044;-76
2023/12/07 12:33:08;;;;;;;195.63;72.10;;;0.80;99.90;;;;;;5076135;28;20051;-76